sensor_id;sensor_type;location;lat;lon;timestamp;pressure;altitude;pressure_sealevel;temperature;humidity
21824;BME280;11074;48.596;9.238;2022-09-13T00:00:08;97940.63;;;17.67;76.07
21824;BME280;11074;48.596;9.238;2022-09-13T00:02:33;97939.78;;;17.58;76.50
21824;BME280;11074;48.596;9.238;2022-09-13T00:04:59;97929.25;;;17.56;76.29
21824;BME280;11074;48.596;9.238;2022-09-13T00:07:25;97931.78;;;17.53;76.72
21824;BME280;11074;48.596;9.238;2022-09-13T00:09:50;97926.94;;;17.50;77.88
21824;BME280;11074;48.596;9.238;2022-09-13T00:12:16;97922.94;;;17.47;77.28
21824;BME280;11074;48.596;9.238;2022-09-13T00:14:42;97919.41;;;17.47;76.81
21824;BME280;11074;48.596;9.238;2022-09-13T00:17:07;97927.22;;;17.48;76.63
21824;BME280;11074;48.596;9.238;2022-09-13T00:19:33;97920.44;;;17.51;76.38
21824;BME280;11074;48.596;9.238;2022-09-13T00:21:59;97922.25;;;17.42;76.73
21824;BME280;11074;48.596;9.238;2022-09-13T00:24:24;97927.63;;;17.42;76.82
21824;BME280;11074;48.596;9.238;2022-09-13T00:26:50;97926.03;;;17.41;76.47
21824;BME280;11074;48.596;9.238;2022-09-13T00:29:15;97914.25;;;17.37;76.78
21824;BME280;11074;48.596;9.238;2022-09-13T00:31:41;97914.72;;;17.39;76.93
21824;BME280;11074;48.596;9.238;2022-09-13T00:34:07;97916.72;;;17.47;76.46
21824;BME280;11074;48.596;9.238;2022-09-13T00:36:32;97904.41;;;17.41;77.02
21824;BME280;11074;48.596;9.238;2022-09-13T00:38:59;97907.44;;;17.39;77.79
21824;BME280;11074;48.596;9.238;2022-09-13T00:41:26;97906.13;;;17.37;77.79
21824;BME280;11074;48.596;9.238;2022-09-13T00:43:55;97915.31;;;17.36;77.34
21824;BME280;11074;48.596;9.238;2022-09-13T00:49:20;97916.53;;;17.30;77.44
21824;BME280;11074;48.596;9.238;2022-09-13T00:51:54;97917.84;;;17.32;77.10
21824;BME280;11074;48.596;9.238;2022-09-13T00:54:27;97924.72;;;17.25;77.41
21824;BME280;11074;48.596;9.238;2022-09-13T00:56:58;97916.03;;;17.28;77.62
21824;BME280;11074;48.596;9.238;2022-09-13T01:02:22;97925.44;;;17.17;78.20
21824;BME280;11074;48.596;9.238;2022-09-13T01:04:48;97917.84;;;17.19;78.46
21824;BME280;11074;48.596;9.238;2022-09-13T01:07:16;97919.31;;;17.11;79.00
21824;BME280;11074;48.596;9.238;2022-09-13T01:09:45;97920.84;;;17.17;78.66
21824;BME280;11074;48.596;9.238;2022-09-13T01:12:28;97904.72;;;17.12;80.08
21824;BME280;11074;48.596;9.238;2022-09-13T01:14:58;97901.03;;;17.08;79.16
21824;BME280;11074;48.596;9.238;2022-09-13T01:17:30;97901.16;;;17.03;80.14
21824;BME280;11074;48.596;9.238;2022-09-13T01:19:58;97905.44;;;17.04;78.00
21824;BME280;11074;48.596;9.238;2022-09-13T01:23:09;97900.03;;;17.04;78.57
21824;BME280;11074;48.596;9.238;2022-09-13T01:32:36;97895.44;;;16.91;80.45
21824;BME280;11074;48.596;9.238;2022-09-13T01:39:03;97896.22;;;16.91;78.29
21824;BME280;11074;48.596;9.238;2022-09-13T01:42:02;97891.13;;;16.90;78.82
21824;BME280;11074;48.596;9.238;2022-09-13T01:47:48;97903.25;;;16.92;79.75
21824;BME280;11074;48.596;9.238;2022-09-13T01:53:24;97907.63;;;16.88;79.34
21824;BME280;11074;48.596;9.238;2022-09-13T01:56:08;97909.34;;;16.84;79.15
21824;BME280;11074;48.596;9.238;2022-09-13T01:58:59;97901.22;;;16.84;78.32
21824;BME280;11074;48.596;9.238;2022-09-13T02:01:38;97902.31;;;16.83;77.63
21824;BME280;11074;48.596;9.238;2022-09-13T02:04:16;97907.72;;;16.83;77.39
21824;BME280;11074;48.596;9.238;2022-09-13T02:07:18;97906.44;;;16.81;76.80
21824;BME280;11074;48.596;9.238;2022-09-13T02:09:53;97902.00;;;16.71;78.29
21824;BME280;11074;48.596;9.238;2022-09-13T02:12:24;97908.59;;;16.65;78.54
21824;BME280;11074;48.596;9.238;2022-09-13T02:15:24;97902.59;;;16.55;79.00
21824;BME280;11074;48.596;9.238;2022-09-13T02:18:06;97909.88;;;16.54;78.85
21824;BME280;11074;48.596;9.238;2022-09-13T02:20:38;97908.38;;;16.62;77.41
21824;BME280;11074;48.596;9.238;2022-09-13T02:23:14;97905.28;;;16.55;78.29
21824;BME280;11074;48.596;9.238;2022-09-13T02:25:45;97907.72;;;16.51;78.32
21824;BME280;11074;48.596;9.238;2022-09-13T02:28:20;97917.97;;;16.54;78.01
21824;BME280;11074;48.596;9.238;2022-09-13T02:30:52;97917.66;;;16.56;77.80
21824;BME280;11074;48.596;9.238;2022-09-13T02:33:30;97925.75;;;16.56;77.44
21824;BME280;11074;48.596;9.238;2022-09-13T02:36:09;97927.22;;;16.48;78.46
21824;BME280;11074;48.596;9.238;2022-09-13T02:38:43;97927.97;;;16.54;79.32
21824;BME280;11074;48.596;9.238;2022-09-13T02:41:20;97928.75;;;16.54;78.36
21824;BME280;11074;48.596;9.238;2022-09-13T02:46:51;97929.09;;;16.48;80.00
21824;BME280;11074;48.596;9.238;2022-09-13T02:56:05;97917.69;;;16.37;80.78
21824;BME280;11074;48.596;9.238;2022-09-13T02:59:19;97933.16;;;16.31;81.73
21824;BME280;11074;48.596;9.238;2022-09-13T03:02:05;97929.66;;;16.31;81.36
21824;BME280;11074;48.596;9.238;2022-09-13T03:04:33;97929.06;;;16.34;80.28
21824;BME280;11074;48.596;9.238;2022-09-13T03:07:00;97930.41;;;16.36;79.55
21824;BME280;11074;48.596;9.238;2022-09-13T03:09:26;97926.34;;;16.34;78.83
21824;BME280;11074;48.596;9.238;2022-09-13T03:24:29;97907.06;;;16.27;80.25
21824;BME280;11074;48.596;9.238;2022-09-13T03:27:18;97911.16;;;16.24;81.58
21824;BME280;11074;48.596;9.238;2022-09-13T03:30:01;97897.03;;;16.14;80.18
21824;BME280;11074;48.596;9.238;2022-09-13T03:35:48;97895.06;;;16.19;80.15
21824;BME280;11074;48.596;9.238;2022-09-13T03:38:29;97891.47;;;16.24;79.53
21824;BME280;11074;48.596;9.238;2022-09-13T03:41:05;97880.25;;;16.17;79.97
21824;BME280;11074;48.596;9.238;2022-09-13T03:43:48;97890.00;;;16.13;81.64
21824;BME280;11074;48.596;9.238;2022-09-13T03:46:24;97901.84;;;16.17;78.99
21824;BME280;11074;48.596;9.238;2022-09-13T03:48:54;97900.13;;;16.07;79.45
21824;BME280;11074;48.596;9.238;2022-09-13T03:51:21;97893.38;;;16.05;80.48
21824;BME280;11074;48.596;9.238;2022-09-13T03:54:01;97883.63;;;16.09;79.05
21824;BME280;11074;48.596;9.238;2022-09-13T03:56:28;97877.50;;;16.03;79.48
21824;BME280;11074;48.596;9.238;2022-09-13T03:58:53;97883.97;;;16.02;79.60
21824;BME280;11074;48.596;9.238;2022-09-13T04:01:21;97870.66;;;15.92;79.92
21824;BME280;11074;48.596;9.238;2022-09-13T04:03:48;97873.16;;;15.89;79.67
21824;BME280;11074;48.596;9.238;2022-09-13T04:06:14;97878.34;;;15.85;79.83
21824;BME280;11074;48.596;9.238;2022-09-13T04:08:40;97868.94;;;15.83;78.20
21824;BME280;11074;48.596;9.238;2022-09-13T04:11:06;97880.81;;;15.82;79.91
21824;BME280;11074;48.596;9.238;2022-09-13T04:13:33;97879.72;;;15.83;77.78
21824;BME280;11074;48.596;9.238;2022-09-13T04:16:03;97878.91;;;15.82;79.20
21824;BME280;11074;48.596;9.238;2022-09-13T04:18:30;97868.72;;;15.79;77.94
21824;BME280;11074;48.596;9.238;2022-09-13T04:20:58;97879.22;;;15.81;79.02
21824;BME280;11074;48.596;9.238;2022-09-13T04:23:27;97874.53;;;15.86;77.85
21824;BME280;11074;48.596;9.238;2022-09-13T04:25:53;97880.88;;;15.76;78.43
21824;BME280;11074;48.596;9.238;2022-09-13T04:28:21;97888.09;;;15.81;78.43
21824;BME280;11074;48.596;9.238;2022-09-13T04:30:48;97884.63;;;15.81;78.46
21824;BME280;11074;48.596;9.238;2022-09-13T04:33:15;97879.88;;;15.72;79.04
21824;BME280;11074;48.596;9.238;2022-09-13T04:35:42;97889.03;;;15.71;78.94
21824;BME280;11074;48.596;9.238;2022-09-13T04:38:08;97873.47;;;15.68;78.97
21824;BME280;11074;48.596;9.238;2022-09-13T04:40:34;97885.94;;;15.64;80.55
21824;BME280;11074;48.596;9.238;2022-09-13T04:43:02;97907.69;;;15.68;79.79
21824;BME280;11074;48.596;9.238;2022-09-13T04:45:28;97909.22;;;15.74;79.20
21824;BME280;11074;48.596;9.238;2022-09-13T04:47:55;97910.84;;;15.75;81.08
21824;BME280;11074;48.596;9.238;2022-09-13T04:50:22;97896.81;;;15.73;81.23
21824;BME280;11074;48.596;9.238;2022-09-13T04:52:49;97898.66;;;15.77;80.43
21824;BME280;11074;48.596;9.238;2022-09-13T04:55:15;97901.50;;;15.67;82.01
21824;BME280;11074;48.596;9.238;2022-09-13T04:57:41;97910.44;;;15.63;82.03
21824;BME280;11074;48.596;9.238;2022-09-13T05:00:08;97917.22;;;15.60;82.34
21824;BME280;11074;48.596;9.238;2022-09-13T05:02:34;97913.44;;;15.61;81.86
21824;BME280;11074;48.596;9.238;2022-09-13T05:05:00;97906.19;;;15.62;81.38
21824;BME280;11074;48.596;9.238;2022-09-13T05:07:26;97903.47;;;15.62;82.38
21824;BME280;11074;48.596;9.238;2022-09-13T05:09:51;97914.59;;;15.55;82.26
21824;BME280;11074;48.596;9.238;2022-09-13T05:12:17;97911.75;;;15.47;83.35
21824;BME280;11074;48.596;9.238;2022-09-13T05:14:43;97914.97;;;15.44;83.23
21824;BME280;11074;48.596;9.238;2022-09-13T05:17:08;97914.16;;;15.48;82.89
21824;BME280;11074;48.596;9.238;2022-09-13T05:19:34;97913.91;;;15.45;83.07
21824;BME280;11074;48.596;9.238;2022-09-13T05:22:01;97917.38;;;15.50;82.92
21824;BME280;11074;48.596;9.238;2022-09-13T05:24:27;97920.38;;;15.49;82.88
21824;BME280;11074;48.596;9.238;2022-09-13T05:26:53;97928.44;;;15.49;82.36
21824;BME280;11074;48.596;9.238;2022-09-13T05:29:19;97923.84;;;15.49;82.63
21824;BME280;11074;48.596;9.238;2022-09-13T05:31:44;97929.81;;;15.46;82.69
21824;BME280;11074;48.596;9.238;2022-09-13T05:34:14;97928.44;;;15.49;83.47
21824;BME280;11074;48.596;9.238;2022-09-13T05:36:41;97931.28;;;15.57;82.18
21824;BME280;11074;48.596;9.238;2022-09-13T05:39:12;97933.91;;;15.62;81.89
21824;BME280;11074;48.596;9.238;2022-09-13T05:41:38;97920.72;;;15.61;81.86
21824;BME280;11074;48.596;9.238;2022-09-13T05:44:03;97928.50;;;15.62;81.58
21824;BME280;11074;48.596;9.238;2022-09-13T05:46:29;97933.81;;;15.67;81.88
21824;BME280;11074;48.596;9.238;2022-09-13T05:48:57;97931.94;;;15.68;81.98
21824;BME280;11074;48.596;9.238;2022-09-13T05:51:24;97936.53;;;15.67;81.63
21824;BME280;11074;48.596;9.238;2022-09-13T05:53:52;97934.88;;;15.71;82.16
21824;BME280;11074;48.596;9.238;2022-09-13T05:56:27;97946.97;;;15.74;81.71
21824;BME280;11074;48.596;9.238;2022-09-13T05:58:53;97944.03;;;15.70;81.49
21824;BME280;11074;48.596;9.238;2022-09-13T06:01:24;97941.97;;;15.62;82.87
21824;BME280;11074;48.596;9.238;2022-09-13T06:03:52;97941.72;;;15.64;82.63
21824;BME280;11074;48.596;9.238;2022-09-13T06:06:18;97941.47;;;15.60;83.21
21824;BME280;11074;48.596;9.238;2022-09-13T06:08:45;97930.44;;;15.62;82.73
21824;BME280;11074;48.596;9.238;2022-09-13T06:11:14;97939.00;;;15.64;82.46
21824;BME280;11074;48.596;9.238;2022-09-13T06:13:40;97937.13;;;15.64;83.67
21824;BME280;11074;48.596;9.238;2022-09-13T06:16:10;97939.81;;;15.64;83.31
21824;BME280;11074;48.596;9.238;2022-09-13T06:18:36;97943.28;;;15.65;83.79
21824;BME280;11074;48.596;9.238;2022-09-13T06:21:06;97948.91;;;15.68;84.03
21824;BME280;11074;48.596;9.238;2022-09-13T06:23:32;97937.41;;;15.63;83.56
21824;BME280;11074;48.596;9.238;2022-09-13T06:28:28;97946.53;;;15.67;84.09
21824;BME280;11074;48.596;9.238;2022-09-13T06:31:10;97945.66;;;15.71;83.69
21824;BME280;11074;48.596;9.238;2022-09-13T06:33:39;97954.25;;;15.73;84.25
21824;BME280;11074;48.596;9.238;2022-09-13T06:36:15;97949.66;;;15.74;83.54
21824;BME280;11074;48.596;9.238;2022-09-13T06:38:46;97948.28;;;15.76;83.89
21824;BME280;11074;48.596;9.238;2022-09-13T06:41:17;97940.91;;;15.82;84.10
21824;BME280;11074;48.596;9.238;2022-09-13T06:43:43;97936.84;;;15.85;84.20
21824;BME280;11074;48.596;9.238;2022-09-13T06:46:12;97940.84;;;15.87;84.24
21824;BME280;11074;48.596;9.238;2022-09-13T06:48:41;97945.97;;;15.89;84.13
21824;BME280;11074;48.596;9.238;2022-09-13T06:51:12;97943.47;;;15.92;84.21
21824;BME280;11074;48.596;9.238;2022-09-13T06:53:40;97932.91;;;15.96;84.29
21824;BME280;11074;48.596;9.238;2022-09-13T06:58:34;97931.34;;;16.08;84.08
21824;BME280;11074;48.596;9.238;2022-09-13T07:01:18;97928.44;;;16.05;84.07
21824;BME280;11074;48.596;9.238;2022-09-13T07:03:54;97928.25;;;16.01;83.93
21824;BME280;11074;48.596;9.238;2022-09-13T07:06:23;97926.63;;;16.00;84.14
21824;BME280;11074;48.596;9.238;2022-09-13T07:08:50;97933.06;;;16.04;84.42
21824;BME280;11074;48.596;9.238;2022-09-13T07:11:19;97929.56;;;16.04;84.49
21824;BME280;11074;48.596;9.238;2022-09-13T07:13:54;97921.38;;;16.09;83.95
21824;BME280;11074;48.596;9.238;2022-09-13T07:16:24;97918.69;;;16.09;84.19
21824;BME280;11074;48.596;9.238;2022-09-13T07:18:54;97920.34;;;16.05;84.68
21824;BME280;11074;48.596;9.238;2022-09-13T07:21:21;97909.38;;;16.01;84.87
21824;BME280;11074;48.596;9.238;2022-09-13T07:23:48;97911.19;;;16.06;85.03
21824;BME280;11074;48.596;9.238;2022-09-13T07:26:14;97905.44;;;16.12;85.02
21824;BME280;11074;48.596;9.238;2022-09-13T07:28:44;97920.41;;;16.18;84.83
21824;BME280;11074;48.596;9.238;2022-09-13T07:31:14;97919.47;;;16.28;84.96
21824;BME280;11074;48.596;9.238;2022-09-13T07:33:42;97925.66;;;16.28;85.39
21824;BME280;11074;48.596;9.238;2022-09-13T07:36:09;97913.97;;;16.33;84.99
21824;BME280;11074;48.596;9.238;2022-09-13T07:38:41;97911.19;;;16.38;85.30
21824;BME280;11074;48.596;9.238;2022-09-13T07:41:13;97905.94;;;16.47;85.65
21824;BME280;11074;48.596;9.238;2022-09-13T07:43:39;97903.66;;;16.54;85.70
21824;BME280;11074;48.596;9.238;2022-09-13T07:46:08;97909.78;;;16.59;85.83
21824;BME280;11074;48.596;9.238;2022-09-13T07:48:38;97899.91;;;16.68;85.39
21824;BME280;11074;48.596;9.238;2022-09-13T07:51:11;97901.63;;;16.78;85.70
21824;BME280;11074;48.596;9.238;2022-09-13T07:53:38;97891.53;;;16.83;86.04
21824;BME280;11074;48.596;9.238;2022-09-13T07:56:11;97891.13;;;16.90;85.79
21824;BME280;11074;48.596;9.238;2022-09-13T07:58:39;97884.63;;;16.91;85.68
21824;BME280;11074;48.596;9.238;2022-09-13T08:01:17;97871.81;;;16.96;86.97
21824;BME280;11074;48.596;9.238;2022-09-13T08:03:43;97881.00;;;16.95;87.03
21824;BME280;11074;48.596;9.238;2022-09-13T08:06:09;97877.63;;;17.04;87.14
21824;BME280;11074;48.596;9.238;2022-09-13T08:08:36;97869.34;;;17.14;85.68
21824;BME280;11074;48.596;9.238;2022-09-13T08:11:05;97875.22;;;17.16;86.48
21824;BME280;11074;48.596;9.238;2022-09-13T08:13:31;97875.59;;;17.23;85.35
21824;BME280;11074;48.596;9.238;2022-09-13T08:16:04;97872.19;;;17.31;84.25
21824;BME280;11074;48.596;9.238;2022-09-13T08:18:31;97870.41;;;17.40;84.25
21824;BME280;11074;48.596;9.238;2022-09-13T08:20:58;97873.59;;;17.42;83.60
21824;BME280;11074;48.596;9.238;2022-09-13T08:23:25;97883.38;;;17.51;82.63
21824;BME280;11074;48.596;9.238;2022-09-13T08:25:51;97876.19;;;17.47;84.38
21824;BME280;11074;48.596;9.238;2022-09-13T08:28:19;97875.25;;;17.51;83.91
21824;BME280;11074;48.596;9.238;2022-09-13T08:30:48;97873.16;;;17.62;84.06
21824;BME280;11074;48.596;9.238;2022-09-13T08:33:14;97869.81;;;17.79;81.16
21824;BME280;11074;48.596;9.238;2022-09-13T08:35:40;97871.16;;;17.68;81.33
21824;BME280;11074;48.596;9.238;2022-09-13T08:38:06;97872.72;;;17.82;82.44
21824;BME280;11074;48.596;9.238;2022-09-13T08:40:40;97860.97;;;17.87;81.80
21824;BME280;11074;48.596;9.238;2022-09-13T08:46:34;97870.81;;;18.05;78.04
21824;BME280;11074;48.596;9.238;2022-09-13T08:49:07;97866.56;;;18.12;79.32
21824;BME280;11074;48.596;9.238;2022-09-13T08:51:44;97865.81;;;18.21;80.66
21824;BME280;11074;48.596;9.238;2022-09-13T08:54:14;97860.75;;;18.19;81.00
21824;BME280;11074;48.596;9.238;2022-09-13T08:56:50;97867.31;;;18.27;80.68
21824;BME280;11074;48.596;9.238;2022-09-13T09:05:24;97850.00;;;18.58;79.53
21824;BME280;11074;48.596;9.238;2022-09-13T09:08:09;97849.56;;;18.65;79.92
21824;BME280;11074;48.596;9.238;2022-09-13T09:10:58;97851.84;;;18.80;80.63
21824;BME280;11074;48.596;9.238;2022-09-13T09:14:05;97840.88;;;18.85;79.62
21824;BME280;11074;48.596;9.238;2022-09-13T09:16:46;97829.09;;;18.90;80.22
21824;BME280;11074;48.596;9.238;2022-09-13T09:19:28;97817.16;;;18.91;80.32
21824;BME280;11074;48.596;9.238;2022-09-13T09:22:03;97815.44;;;18.95;77.20
21824;BME280;11074;48.596;9.238;2022-09-13T09:24:36;97812.28;;;19.10;77.07
21824;BME280;11074;48.596;9.238;2022-09-13T09:27:18;97809.91;;;19.25;75.88
21824;BME280;11074;48.596;9.238;2022-09-13T09:29:50;97800.84;;;19.39;75.32
21824;BME280;11074;48.596;9.238;2022-09-13T09:38:36;97804.38;;;19.65;75.29
21824;BME280;11074;48.596;9.238;2022-09-13T09:41:34;97806.78;;;19.66;76.04
21824;BME280;11074;48.596;9.238;2022-09-13T09:44:20;97813.31;;;19.74;75.18
21824;BME280;11074;48.596;9.238;2022-09-13T09:47:02;97809.63;;;19.78;74.86
21824;BME280;11074;48.596;9.238;2022-09-13T09:49:54;97813.78;;;19.93;71.94
21824;BME280;11074;48.596;9.238;2022-09-13T09:52:49;97814.41;;;20.07;74.19
21824;BME280;11074;48.596;9.238;2022-09-13T09:58:11;97810.25;;;20.27;70.40
21824;BME280;11074;48.596;9.238;2022-09-13T10:00:54;97808.63;;;20.26;72.20
21824;BME280;11074;48.596;9.238;2022-09-13T10:03:26;97815.50;;;20.32;74.36
21824;BME280;11074;48.596;9.238;2022-09-13T10:06:13;97822.50;;;20.41;74.11
21824;BME280;11074;48.596;9.238;2022-09-13T10:09:03;97823.94;;;20.39;75.33
21824;BME280;11074;48.596;9.238;2022-09-13T10:11:51;97825.19;;;20.41;75.53
21824;BME280;11074;48.596;9.238;2022-09-13T10:14:41;97824.69;;;20.57;73.24
21824;BME280;11074;48.596;9.238;2022-09-13T10:17:26;97829.44;;;20.68;73.73
21824;BME280;11074;48.596;9.238;2022-09-13T10:20:21;97826.84;;;20.80;73.65
21824;BME280;11074;48.596;9.238;2022-09-13T10:25:41;97829.03;;;20.87;75.13
21824;BME280;11074;48.596;9.238;2022-09-13T10:28:16;97828.00;;;21.00;73.32
21824;BME280;11074;48.596;9.238;2022-09-13T10:31:06;97812.97;;;21.02;73.58
21824;BME280;11074;48.596;9.238;2022-09-13T10:36:28;97806.88;;;21.05;73.95
21824;BME280;11074;48.596;9.238;2022-09-13T10:39:03;97797.94;;;21.05;72.50
21824;BME280;11074;48.596;9.238;2022-09-13T10:41:34;97794.53;;;21.17;71.81
21824;BME280;11074;48.596;9.238;2022-09-13T10:44:22;97781.41;;;21.19;71.22
21824;BME280;11074;48.596;9.238;2022-09-13T10:46:51;97779.41;;;21.07;72.29
21824;BME280;11074;48.596;9.238;2022-09-13T10:52:34;97789.00;;;21.34;69.16
21824;BME280;11074;48.596;9.238;2022-09-13T10:55:29;97800.53;;;21.51;69.22
21824;BME280;11074;48.596;9.238;2022-09-13T10:58:16;97802.59;;;21.54;69.16
21824;BME280;11074;48.596;9.238;2022-09-13T11:17:52;97778.81;;;22.17;66.38
21824;BME280;11074;48.596;9.238;2022-09-13T11:24:09;97767.63;;;22.30;67.91
21824;BME280;11074;48.596;9.238;2022-09-13T11:30:17;97771.22;;;22.22;68.76
21824;BME280;11074;48.596;9.238;2022-09-13T11:42:20;97772.97;;;22.39;65.90
21824;BME280;11074;48.596;9.238;2022-09-13T11:45:11;97767.31;;;22.44;65.94
21824;BME280;11074;48.596;9.238;2022-09-13T11:48:22;97771.94;;;22.44;67.51
21824;BME280;11074;48.596;9.238;2022-09-13T11:56:42;97778.81;;;22.74;64.85
21824;BME280;11074;48.596;9.238;2022-09-13T11:59:34;97764.69;;;22.60;63.66
21824;BME280;11074;48.596;9.238;2022-09-13T12:02:38;97759.97;;;22.69;62.10
21824;BME280;11074;48.596;9.238;2022-09-13T12:05:23;97756.66;;;22.75;64.59
21824;BME280;11074;48.596;9.238;2022-09-13T12:08:17;97746.66;;;22.55;63.17
21824;BME280;11074;48.596;9.238;2022-09-13T12:10:55;97759.75;;;22.74;63.81
21824;BME280;11074;48.596;9.238;2022-09-13T12:16:12;97740.28;;;23.00;60.21
21824;BME280;11074;48.596;9.238;2022-09-13T12:18:45;97732.78;;;23.09;58.80
21824;BME280;11074;48.596;9.238;2022-09-13T12:21:20;97743.78;;;23.24;60.10
21824;BME280;11074;48.596;9.238;2022-09-13T12:24:13;97742.06;;;23.32;59.07
21824;BME280;11074;48.596;9.238;2022-09-13T12:26:54;97736.22;;;23.58;57.07
21824;BME280;11074;48.596;9.238;2022-09-13T12:29:50;97743.50;;;23.53;59.12
21824;BME280;11074;48.596;9.238;2022-09-13T12:32:18;97737.28;;;23.41;58.49
21824;BME280;11074;48.596;9.238;2022-09-13T12:35:00;97739.72;;;23.58;57.52
21824;BME280;11074;48.596;9.238;2022-09-13T12:41:08;97727.88;;;23.66;60.91
21824;BME280;11074;48.596;9.238;2022-09-13T13:01:20;97700.13;;;24.07;54.46
21824;BME280;11074;48.596;9.238;2022-09-13T13:03:49;97696.19;;;24.21;51.37
21824;BME280;11074;48.596;9.238;2022-09-13T13:06:38;97693.75;;;24.16;52.00
21824;BME280;11074;48.596;9.238;2022-09-13T13:09:39;97686.25;;;23.85;54.75
21824;BME280;11074;48.596;9.238;2022-09-13T13:12:09;97690.00;;;23.65;56.67
21824;BME280;11074;48.596;9.238;2022-09-13T13:20:43;97673.84;;;23.44;56.27
21824;BME280;11074;48.596;9.238;2022-09-13T13:23:21;97666.41;;;23.57;56.30
21824;BME280;11074;48.596;9.238;2022-09-13T13:34:00;97663.84;;;23.36;55.23
21824;BME280;11074;48.596;9.238;2022-09-13T13:37:05;97663.81;;;23.48;54.53
21824;BME280;11074;48.596;9.238;2022-09-13T13:40:09;97660.34;;;23.63;54.89
21824;BME280;11074;48.596;9.238;2022-09-13T13:42:35;97657.22;;;23.49;55.06
21824;BME280;11074;48.596;9.238;2022-09-13T13:45:26;97654.25;;;23.54;55.00
21824;BME280;11074;48.596;9.238;2022-09-13T13:48:14;97651.16;;;23.56;53.61
21824;BME280;11074;48.596;9.238;2022-09-13T13:53:38;97651.44;;;23.66;52.70
21824;BME280;11074;48.596;9.238;2022-09-13T13:56:31;97649.34;;;23.75;53.84
21824;BME280;11074;48.596;9.238;2022-09-13T13:59:22;97657.53;;;23.75;51.20
21824;BME280;11074;48.596;9.238;2022-09-13T14:01:54;97653.41;;;23.81;52.94
21824;BME280;11074;48.596;9.238;2022-09-13T14:09:51;97643.31;;;24.29;53.69
21824;BME280;11074;48.596;9.238;2022-09-13T14:12:37;97629.25;;;24.46;52.79
21824;BME280;11074;48.596;9.238;2022-09-13T14:18:31;97629.75;;;24.83;51.99
21824;BME280;11074;48.596;9.238;2022-09-13T14:21:15;97625.50;;;24.85;52.21
21824;BME280;11074;48.596;9.238;2022-09-13T14:23:41;97621.63;;;24.70;52.97
21824;BME280;11074;48.596;9.238;2022-09-13T14:26:09;97621.94;;;24.50;51.01
21824;BME280;11074;48.596;9.238;2022-09-13T14:28:36;97629.72;;;24.48;54.18
21824;BME280;11074;48.596;9.238;2022-09-13T14:31:03;97616.22;;;24.55;52.86
21824;BME280;11074;48.596;9.238;2022-09-13T14:33:34;97617.09;;;24.59;52.97
21824;BME280;11074;48.596;9.238;2022-09-13T14:36:06;97620.50;;;24.71;52.73
21824;BME280;11074;48.596;9.238;2022-09-13T14:38:34;97615.81;;;24.72;53.38
21824;BME280;11074;48.596;9.238;2022-09-13T14:41:21;97615.00;;;24.87;55.14
21824;BME280;11074;48.596;9.238;2022-09-13T14:43:53;97610.91;;;25.16;51.51
21824;BME280;11074;48.596;9.238;2022-09-13T14:46:24;97608.88;;;25.13;54.34
21824;BME280;11074;48.596;9.238;2022-09-13T14:48:56;97608.38;;;25.26;49.04
21824;BME280;11074;48.596;9.238;2022-09-13T14:51:30;97603.28;;;25.25;48.96
21824;BME280;11074;48.596;9.238;2022-09-13T14:54:14;97601.47;;;25.13;49.03
21824;BME280;11074;48.596;9.238;2022-09-13T14:56:48;97594.84;;;25.14;47.62
21824;BME280;11074;48.596;9.238;2022-09-13T14:59:44;97589.69;;;25.09;48.82
21824;BME280;11074;48.596;9.238;2022-09-13T15:02:23;97584.19;;;24.90;50.70
21824;BME280;11074;48.596;9.238;2022-09-13T15:04:54;97584.63;;;25.11;51.25
21824;BME280;11074;48.596;9.238;2022-09-13T15:07:33;97571.88;;;25.19;49.88
21824;BME280;11074;48.596;9.238;2022-09-13T15:10:28;97570.06;;;25.07;50.60
21824;BME280;11074;48.596;9.238;2022-09-13T15:15:38;97563.38;;;25.05;50.91
21824;BME280;11074;48.596;9.238;2022-09-13T15:20:57;97562.88;;;24.99;52.77
21824;BME280;11074;48.596;9.238;2022-09-13T15:23:41;97561.16;;;25.10;52.62
21824;BME280;11074;48.596;9.238;2022-09-13T15:26:22;97551.00;;;25.11;52.52
21824;BME280;11074;48.596;9.238;2022-09-13T15:28:58;97550.00;;;25.00;51.87
21824;BME280;11074;48.596;9.238;2022-09-13T15:31:33;97554.75;;;25.03;52.74
21824;BME280;11074;48.596;9.238;2022-09-13T15:34:22;97552.50;;;25.08;53.01
21824;BME280;11074;48.596;9.238;2022-09-13T15:39:46;97558.16;;;24.96;53.40
21824;BME280;11074;48.596;9.238;2022-09-13T15:42:12;97546.25;;;24.89;54.07
21824;BME280;11074;48.596;9.238;2022-09-13T15:44:38;97542.28;;;24.86;54.19
21824;BME280;11074;48.596;9.238;2022-09-13T15:47:16;97539.84;;;24.81;55.06
21824;BME280;11074;48.596;9.238;2022-09-13T15:49:49;97535.06;;;24.78;55.66
21824;BME280;11074;48.596;9.238;2022-09-13T15:52:18;97531.91;;;24.76;55.43
21824;BME280;11074;48.596;9.238;2022-09-13T15:54:47;97522.84;;;24.72;54.97
21824;BME280;11074;48.596;9.238;2022-09-13T15:57:27;97524.91;;;24.59;54.92
21824;BME280;11074;48.596;9.238;2022-09-13T15:59:54;97519.22;;;24.49;55.54
21824;BME280;11074;48.596;9.238;2022-09-13T16:02:27;97513.19;;;24.40;55.55
21824;BME280;11074;48.596;9.238;2022-09-13T16:04:55;97519.28;;;24.33;56.01
21824;BME280;11074;48.596;9.238;2022-09-13T16:07:23;97511.16;;;24.37;55.82
21824;BME280;11074;48.596;9.238;2022-09-13T16:09:50;97506.84;;;24.36;55.91
21824;BME280;11074;48.596;9.238;2022-09-13T16:12:16;97503.59;;;24.30;56.59
21824;BME280;11074;48.596;9.238;2022-09-13T16:14:44;97497.91;;;24.20;58.04
21824;BME280;11074;48.596;9.238;2022-09-13T16:17:17;97499.41;;;24.17;57.87
21824;BME280;11074;48.596;9.238;2022-09-13T16:19:43;97503.22;;;24.13;58.65
21824;BME280;11074;48.596;9.238;2022-09-13T16:22:09;97497.19;;;24.07;58.94
21824;BME280;11074;48.596;9.238;2022-09-13T16:24:35;97495.44;;;24.15;58.69
21824;BME280;11074;48.596;9.238;2022-09-13T16:27:03;97499.84;;;24.03;59.79
21824;BME280;11074;48.596;9.238;2022-09-13T16:29:29;97496.25;;;23.99;59.80
21824;BME280;11074;48.596;9.238;2022-09-13T16:31:55;97502.31;;;23.93;61.55